sensor_id;sensor_type;location;lat;lon;timestamp;temperature;humidity
11214;DHT22;5664;48.606;13.456;2023-12-29T00:01:15;18.70;83.50
11214;DHT22;5664;48.606;13.456;2023-12-29T00:03:40;18.70;83.60
11214;DHT22;5664;48.606;13.456;2023-12-29T00:06:06;18.70;83.70
11214;DHT22;5664;48.606;13.456;2023-12-29T00:08:31;18.60;83.70
11214;DHT22;5664;48.606;13.456;2023-12-29T00:10:57;18.60;83.80
11214;DHT22;5664;48.606;13.456;2023-12-29T00:13:22;18.10;83.80
11214;DHT22;5664;48.606;13.456;2023-12-29T00:15:52;18.60;83.90
11214;DHT22;5664;48.606;13.456;2023-12-29T00:18:18;18.60;83.90
11214;DHT22;5664;48.606;13.456;2023-12-29T00:20:43;18.50;83.90
11214;DHT22;5664;48.606;13.456;2023-12-29T00:23:09;18.50;84.00
11214;DHT22;5664;48.606;13.456;2023-12-29T00:25:37;18.50;84.10
11214;DHT22;5664;48.606;13.456;2023-12-29T00:28:03;18.50;84.10
11214;DHT22;5664;48.606;13.456;2023-12-29T00:30:28;18.50;84.10
11214;DHT22;5664;48.606;13.456;2023-12-29T00:32:57;18.50;84.10
11214;DHT22;5664;48.606;13.456;2023-12-29T00:35:22;18.40;84.60
11214;DHT22;5664;48.606;13.456;2023-12-29T00:37:49;18.40;84.20
11214;DHT22;5664;48.606;13.456;2023-12-29T00:40:15;18.40;84.20
11214;DHT22;5664;48.606;13.456;2023-12-29T00:42:40;18.40;84.20
11214;DHT22;5664;48.606;13.456;2023-12-29T00:45:06;18.30;84.20
11214;DHT22;5664;48.606;13.456;2023-12-29T00:47:32;18.30;84.20
11214;DHT22;5664;48.606;13.456;2023-12-29T00:49:57;18.30;84.20
11214;DHT22;5664;48.606;13.456;2023-12-29T00:52:23;18.30;84.20
11214;DHT22;5664;48.606;13.456;2023-12-29T00:54:48;18.30;84.40
11214;DHT22;5664;48.606;13.456;2023-12-29T00:57:14;18.30;84.30
11214;DHT22;5664;48.606;13.456;2023-12-29T00:59:40;18.30;84.40
11214;DHT22;5664;48.606;13.456;2023-12-29T01:02:06;18.20;84.30
11214;DHT22;5664;48.606;13.456;2023-12-29T01:04:31;18.20;84.40
11214;DHT22;5664;48.606;13.456;2023-12-29T01:06:57;18.20;84.40
11214;DHT22;5664;48.606;13.456;2023-12-29T01:09:22;18.20;84.40
11214;DHT22;5664;48.606;13.456;2023-12-29T01:11:48;18.20;84.50
11214;DHT22;5664;48.606;13.456;2023-12-29T01:14:13;18.10;84.50
11214;DHT22;5664;48.606;13.456;2023-12-29T01:16:42;18.10;84.50
11214;DHT22;5664;48.606;13.456;2023-12-29T01:19:08;18.10;84.60
11214;DHT22;5664;48.606;13.456;2023-12-29T01:21:33;18.10;84.60
11214;DHT22;5664;48.606;13.456;2023-12-29T01:24:00;18.10;84.70
11214;DHT22;5664;48.606;13.456;2023-12-29T01:26:26;18.10;84.60
11214;DHT22;5664;48.606;13.456;2023-12-29T01:28:51;18.10;84.70
11214;DHT22;5664;48.606;13.456;2023-12-29T01:31:17;18.10;84.70
11214;DHT22;5664;48.606;13.456;2023-12-29T01:33:42;18.00;84.70
11214;DHT22;5664;48.606;13.456;2023-12-29T01:36:08;18.00;84.70
11214;DHT22;5664;48.606;13.456;2023-12-29T01:38:34;18.00;84.80
11214;DHT22;5664;48.606;13.456;2023-12-29T01:40:59;17.90;84.70
11214;DHT22;5664;48.606;13.456;2023-12-29T01:43:27;17.90;84.80
11214;DHT22;5664;48.606;13.456;2023-12-29T01:45:53;17.90;84.90
11214;DHT22;5664;48.606;13.456;2023-12-29T01:48:18;17.90;84.80
11214;DHT22;5664;48.606;13.456;2023-12-29T01:50:44;17.90;84.90
11214;DHT22;5664;48.606;13.456;2023-12-29T01:53:10;17.90;85.00
11214;DHT22;5664;48.606;13.456;2023-12-29T01:55:36;17.90;85.00
11214;DHT22;5664;48.606;13.456;2023-12-29T01:58:02;17.80;84.90
11214;DHT22;5664;48.606;13.456;2023-12-29T02:00:28;17.80;85.00
11214;DHT22;5664;48.606;13.456;2023-12-29T02:02:53;17.80;85.10
11214;DHT22;5664;48.606;13.456;2023-12-29T02:05:20;17.80;85.10
11214;DHT22;5664;48.606;13.456;2023-12-29T02:07:45;17.80;85.10
11214;DHT22;5664;48.606;13.456;2023-12-29T02:10:11;17.70;85.00
11214;DHT22;5664;48.606;13.456;2023-12-29T02:12:40;17.80;85.20
11214;DHT22;5664;48.606;13.456;2023-12-29T02:15:06;17.70;85.10
11214;DHT22;5664;48.606;13.456;2023-12-29T02:18:06;17.70;85.20
11214;DHT22;5664;48.606;13.456;2023-12-29T02:20:24;17.70;85.20
11214;DHT22;5664;48.606;13.456;2023-12-29T02:22:50;17.60;85.20
11214;DHT22;5664;48.606;13.456;2023-12-29T02:25:15;17.60;85.30
11214;DHT22;5664;48.606;13.456;2023-12-29T02:27:43;17.60;86.10
11214;DHT22;5664;48.606;13.456;2023-12-29T02:32:38;17.60;85.30
11214;DHT22;5664;48.606;13.456;2023-12-29T02:35:04;17.60;85.40
11214;DHT22;5664;48.606;13.456;2023-12-29T02:37:33;17.60;85.50
11214;DHT22;5664;48.606;13.456;2023-12-29T02:39:59;17.50;85.40
11214;DHT22;5664;48.606;13.456;2023-12-29T02:42:25;17.50;85.50
11214;DHT22;5664;48.606;13.456;2023-12-29T02:44:50;17.50;85.40
11214;DHT22;5664;48.606;13.456;2023-12-29T02:47:16;17.50;85.50
11214;DHT22;5664;48.606;13.456;2023-12-29T02:49:42;17.50;85.50
11214;DHT22;5664;48.606;13.456;2023-12-29T02:52:07;17.50;85.50
11214;DHT22;5664;48.606;13.456;2023-12-29T02:54:33;17.50;85.60
11214;DHT22;5664;48.606;13.456;2023-12-29T02:56:58;17.40;85.50
11214;DHT22;5664;48.606;13.456;2023-12-29T02:59:24;17.40;85.50
11214;DHT22;5664;48.606;13.456;2023-12-29T03:01:49;17.40;85.60
11214;DHT22;5664;48.606;13.456;2023-12-29T03:04:15;17.40;85.70
11214;DHT22;5664;48.606;13.456;2023-12-29T03:06:40;17.40;85.70
11214;DHT22;5664;48.606;13.456;2023-12-29T03:09:06;17.30;85.60
11214;DHT22;5664;48.606;13.456;2023-12-29T03:11:32;17.40;85.70
11214;DHT22;5664;48.606;13.456;2023-12-29T03:13:57;17.30;85.70
11214;DHT22;5664;48.606;13.456;2023-12-29T03:16:23;17.30;85.80
11214;DHT22;5664;48.606;13.456;2023-12-29T03:18:48;17.30;85.80
11214;DHT22;5664;48.606;13.456;2023-12-29T03:21:14;17.30;85.80
11214;DHT22;5664;48.606;13.456;2023-12-29T03:23:39;17.30;85.80
11214;DHT22;5664;48.606;13.456;2023-12-29T03:26:05;17.30;85.80
11214;DHT22;5664;48.606;13.456;2023-12-29T03:28:30;17.20;86.10
11214;DHT22;5664;48.606;13.456;2023-12-29T03:30:56;17.20;85.90
11214;DHT22;5664;48.606;13.456;2023-12-29T03:33:21;17.20;85.90
11214;DHT22;5664;48.606;13.456;2023-12-29T03:35:46;17.20;86.00
11214;DHT22;5664;48.606;13.456;2023-12-29T03:38:12;17.20;86.00
11214;DHT22;5664;48.606;13.456;2023-12-29T03:40:38;17.20;86.00
11214;DHT22;5664;48.606;13.456;2023-12-29T03:43:03;17.20;86.00
11214;DHT22;5664;48.606;13.456;2023-12-29T03:45:29;17.10;86.00
11214;DHT22;5664;48.606;13.456;2023-12-29T03:47:54;17.10;86.00
11214;DHT22;5664;48.606;13.456;2023-12-29T03:50:20;17.10;86.10
11214;DHT22;5664;48.606;13.456;2023-12-29T03:52:45;17.10;86.10
11214;DHT22;5664;48.606;13.456;2023-12-29T03:55:11;17.10;86.10
11214;DHT22;5664;48.606;13.456;2023-12-29T03:57:36;17.10;86.10
11214;DHT22;5664;48.606;13.456;2023-12-29T04:00:02;17.10;86.10
11214;DHT22;5664;48.606;13.456;2023-12-29T04:02:28;17.10;86.20
11214;DHT22;5664;48.606;13.456;2023-12-29T04:04:53;17.10;86.20
11214;DHT22;5664;48.606;13.456;2023-12-29T04:07:19;17.00;86.10
11214;DHT22;5664;48.606;13.456;2023-12-29T04:09:44;17.00;86.20
11214;DHT22;5664;48.606;13.456;2023-12-29T04:12:09;17.00;86.10
11214;DHT22;5664;48.606;13.456;2023-12-29T04:14:35;17.00;86.20
11214;DHT22;5664;48.606;13.456;2023-12-29T04:17:01;17.00;86.20
11214;DHT22;5664;48.606;13.456;2023-12-29T04:19:28;17.00;86.30
11214;DHT22;5664;48.606;13.456;2023-12-29T04:21:54;16.90;86.20
11214;DHT22;5664;48.606;13.456;2023-12-29T04:24:19;17.00;86.30
11214;DHT22;5664;48.606;13.456;2023-12-29T04:26:45;16.90;86.30
11214;DHT22;5664;48.606;13.456;2023-12-29T04:29:11;17.00;86.40
11214;DHT22;5664;48.606;13.456;2023-12-29T04:31:36;16.90;86.30
11214;DHT22;5664;48.606;13.456;2023-12-29T04:34:01;16.90;86.30
11214;DHT22;5664;48.606;13.456;2023-12-29T04:36:27;16.90;86.30
11214;DHT22;5664;48.606;13.456;2023-12-29T04:38:52;16.90;86.40
11214;DHT22;5664;48.606;13.456;2023-12-29T04:41:18;16.90;86.40
11214;DHT22;5664;48.606;13.456;2023-12-29T04:43:43;16.90;86.40
11214;DHT22;5664;48.606;13.456;2023-12-29T04:46:09;16.90;86.40
11214;DHT22;5664;48.606;13.456;2023-12-29T04:48:34;16.80;86.40
11214;DHT22;5664;48.606;13.456;2023-12-29T04:51:00;16.80;86.40
11214;DHT22;5664;48.606;13.456;2023-12-29T04:53:26;16.80;86.40
11214;DHT22;5664;48.606;13.456;2023-12-29T04:55:51;16.00;86.30
11214;DHT22;5664;48.606;13.456;2023-12-29T04:58:17;16.80;86.50
11214;DHT22;5664;48.606;13.456;2023-12-29T05:00:42;16.80;86.50
11214;DHT22;5664;48.606;13.456;2023-12-29T05:03:08;16.80;86.50
11214;DHT22;5664;48.606;13.456;2023-12-29T05:05:33;16.80;86.50
11214;DHT22;5664;48.606;13.456;2023-12-29T05:07:59;16.80;86.60
11214;DHT22;5664;48.606;13.456;2023-12-29T05:10:24;16.70;86.50
11214;DHT22;5664;48.606;13.456;2023-12-29T05:12:50;16.70;86.50
11214;DHT22;5664;48.606;13.456;2023-12-29T05:15:15;16.70;86.50
11214;DHT22;5664;48.606;13.456;2023-12-29T05:17:41;16.70;86.50
11214;DHT22;5664;48.606;13.456;2023-12-29T05:20:07;16.70;86.50
11214;DHT22;5664;48.606;13.456;2023-12-29T05:22:32;16.70;86.50
11214;DHT22;5664;48.606;13.456;2023-12-29T05:24:58;16.70;86.50
11214;DHT22;5664;48.606;13.456;2023-12-29T05:27:25;16.70;86.60
11214;DHT22;5664;48.606;13.456;2023-12-29T05:29:51;16.70;86.60
11214;DHT22;5664;48.606;13.456;2023-12-29T05:32:16;16.70;86.60
11214;DHT22;5664;48.606;13.456;2023-12-29T05:34:42;16.70;87.40
11214;DHT22;5664;48.606;13.456;2023-12-29T05:37:08;16.60;86.60
11214;DHT22;5664;48.606;13.456;2023-12-29T05:39:33;16.60;86.60
11214;DHT22;5664;48.606;13.456;2023-12-29T05:41:59;16.60;86.60
11214;DHT22;5664;48.606;13.456;2023-12-29T05:44:24;16.60;86.60
11214;DHT22;5664;48.606;13.456;2023-12-29T05:46:50;16.60;86.70
11214;DHT22;5664;48.606;13.456;2023-12-29T05:49:16;16.60;86.70
11214;DHT22;5664;48.606;13.456;2023-12-29T05:51:42;16.60;86.70
11214;DHT22;5664;48.606;13.456;2023-12-29T05:54:08;16.60;86.70
11214;DHT22;5664;48.606;13.456;2023-12-29T05:56:33;16.60;86.70
11214;DHT22;5664;48.606;13.456;2023-12-29T05:58:59;16.50;86.70
11214;DHT22;5664;48.606;13.456;2023-12-29T06:01:24;16.50;86.70
11214;DHT22;5664;48.606;13.456;2023-12-29T06:03:50;16.50;86.80
11214;DHT22;5664;48.606;13.456;2023-12-29T06:06:15;16.50;86.80
11214;DHT22;5664;48.606;13.456;2023-12-29T06:08:41;16.50;86.80
11214;DHT22;5664;48.606;13.456;2023-12-29T06:11:06;16.50;86.80
11214;DHT22;5664;48.606;13.456;2023-12-29T06:13:32;16.50;86.80
11214;DHT22;5664;48.606;13.456;2023-12-29T06:15:57;16.50;86.80
11214;DHT22;5664;48.606;13.456;2023-12-29T06:18:23;16.50;86.80
11214;DHT22;5664;48.606;13.456;2023-12-29T06:20:48;16.40;86.70
11214;DHT22;5664;48.606;13.456;2023-12-29T06:23:14;16.40;86.70
11214;DHT22;5664;48.606;13.456;2023-12-29T06:25:39;16.40;86.80
11214;DHT22;5664;48.606;13.456;2023-12-29T06:28:06;16.40;86.70
11214;DHT22;5664;48.606;13.456;2023-12-29T06:30:32;16.40;86.70
11214;DHT22;5664;48.606;13.456;2023-12-29T06:32:57;16.40;86.70
11214;DHT22;5664;48.606;13.456;2023-12-29T06:35:23;16.40;86.70
11214;DHT22;5664;48.606;13.456;2023-12-29T06:37:48;16.40;86.80
11214;DHT22;5664;48.606;13.456;2023-12-29T06:40:15;16.40;86.80
11214;DHT22;5664;48.606;13.456;2023-12-29T06:42:41;16.40;87.60
11214;DHT22;5664;48.606;13.456;2023-12-29T06:45:07;16.30;86.80
11214;DHT22;5664;48.606;13.456;2023-12-29T06:47:33;16.30;86.80
11214;DHT22;5664;48.606;13.456;2023-12-29T06:49:59;16.30;86.80
11214;DHT22;5664;48.606;13.456;2023-12-29T06:52:24;16.30;86.80
11214;DHT22;5664;48.606;13.456;2023-12-29T06:54:50;16.30;86.90
11214;DHT22;5664;48.606;13.456;2023-12-29T06:57:16;16.30;86.90
11214;DHT22;5664;48.606;13.456;2023-12-29T06:59:42;16.30;86.90
11214;DHT22;5664;48.606;13.456;2023-12-29T07:02:07;16.30;86.90
11214;DHT22;5664;48.606;13.456;2023-12-29T07:04:33;16.30;86.90
11214;DHT22;5664;48.606;13.456;2023-12-29T07:06:59;16.30;87.00
11214;DHT22;5664;48.606;13.456;2023-12-29T07:09:25;16.30;86.90
11214;DHT22;5664;48.606;13.456;2023-12-29T07:11:50;16.20;87.00
11214;DHT22;5664;48.606;13.456;2023-12-29T07:14:16;16.30;86.90
11214;DHT22;5664;48.606;13.456;2023-12-29T07:16:43;16.20;87.00
11214;DHT22;5664;48.606;13.456;2023-12-29T07:19:09;16.20;87.00
11214;DHT22;5664;48.606;13.456;2023-12-29T07:21:37;16.20;87.00
11214;DHT22;5664;48.606;13.456;2023-12-29T07:24:03;16.20;87.00
11214;DHT22;5664;48.606;13.456;2023-12-29T07:26:28;16.20;87.00
11214;DHT22;5664;48.606;13.456;2023-12-29T07:28:54;16.20;87.00
11214;DHT22;5664;48.606;13.456;2023-12-29T07:31:22;16.20;87.00
11214;DHT22;5664;48.606;13.456;2023-12-29T07:33:47;16.20;87.20
11214;DHT22;5664;48.606;13.456;2023-12-29T07:36:13;16.20;87.10
11214;DHT22;5664;48.606;13.456;2023-12-29T07:38:38;16.20;87.10
11214;DHT22;5664;48.606;13.456;2023-12-29T07:41:04;16.20;87.10
11214;DHT22;5664;48.606;13.456;2023-12-29T07:43:31;16.20;87.20
11214;DHT22;5664;48.606;13.456;2023-12-29T07:45:56;16.10;87.00
11214;DHT22;5664;48.606;13.456;2023-12-29T07:48:22;16.10;87.10
11214;DHT22;5664;48.606;13.456;2023-12-29T07:50:48;16.10;87.20
11214;DHT22;5664;48.606;13.456;2023-12-29T07:53:13;16.10;87.20
11214;DHT22;5664;48.606;13.456;2023-12-29T07:55:39;16.10;87.20
11214;DHT22;5664;48.606;13.456;2023-12-29T07:58:07;16.10;87.20
11214;DHT22;5664;48.606;13.456;2023-12-29T08:00:35;16.20;87.30
11214;DHT22;5664;48.606;13.456;2023-12-29T08:03:03;16.10;87.20
11214;DHT22;5664;48.606;13.456;2023-12-29T08:05:30;16.10;87.20
11214;DHT22;5664;48.606;13.456;2023-12-29T08:07:56;16.10;87.30
11214;DHT22;5664;48.606;13.456;2023-12-29T08:10:21;16.10;87.30
11214;DHT22;5664;48.606;13.456;2023-12-29T08:12:47;16.10;87.30
11214;DHT22;5664;48.606;13.456;2023-12-29T08:15:12;16.10;87.40
11214;DHT22;5664;48.606;13.456;2023-12-29T08:17:38;16.10;87.40
11214;DHT22;5664;48.606;13.456;2023-12-29T08:20:03;16.10;87.40
11214;DHT22;5664;48.606;13.456;2023-12-29T08:22:29;16.10;87.50
11214;DHT22;5664;48.606;13.456;2023-12-29T08:24:55;16.10;87.60
11214;DHT22;5664;48.606;13.456;2023-12-29T08:27:24;16.00;88.60
11214;DHT22;5664;48.606;13.456;2023-12-29T08:29:53;16.00;87.50
11214;DHT22;5664;48.606;13.456;2023-12-29T08:32:19;16.00;87.50
11214;DHT22;5664;48.606;13.456;2023-12-29T08:34:44;16.00;87.60
11214;DHT22;5664;48.606;13.456;2023-12-29T08:37:10;16.00;87.60
11214;DHT22;5664;48.606;13.456;2023-12-29T08:39:35;16.00;87.60
11214;DHT22;5664;48.606;13.456;2023-12-29T08:42:01;16.00;87.60
11214;DHT22;5664;48.606;13.456;2023-12-29T08:44:26;16.00;87.80
11214;DHT22;5664;48.606;13.456;2023-12-29T08:46:52;16.00;88.70
11214;DHT22;5664;48.606;13.456;2023-12-29T08:49:17;16.10;89.50
11214;DHT22;5664;48.606;13.456;2023-12-29T08:51:43;16.10;90.00
11214;DHT22;5664;48.606;13.456;2023-12-29T08:54:09;16.10;90.10
11214;DHT22;5664;48.606;13.456;2023-12-29T08:56:34;16.20;90.10
11214;DHT22;5664;48.606;13.456;2023-12-29T08:59:00;16.20;90.00
11214;DHT22;5664;48.606;13.456;2023-12-29T09:01:25;16.30;90.10
11214;DHT22;5664;48.606;13.456;2023-12-29T09:03:51;16.40;90.10
11214;DHT22;5664;48.606;13.456;2023-12-29T09:06:16;16.40;90.10
11214;DHT22;5664;48.606;13.456;2023-12-29T09:08:42;16.40;90.10
11214;DHT22;5664;48.606;13.456;2023-12-29T09:11:07;16.50;90.00
11214;DHT22;5664;48.606;13.456;2023-12-29T09:13:33;16.50;90.10
11214;DHT22;5664;48.606;13.456;2023-12-29T09:15:58;16.50;90.10
11214;DHT22;5664;48.606;13.456;2023-12-29T09:18:24;16.60;90.00
11214;DHT22;5664;48.606;13.456;2023-12-29T09:20:50;16.70;89.90
11214;DHT22;5664;48.606;13.456;2023-12-29T09:23:15;16.70;89.70
11214;DHT22;5664;48.606;13.456;2023-12-29T09:25:41;16.80;89.50
11214;DHT22;5664;48.606;13.456;2023-12-29T09:28:06;16.80;89.30
11214;DHT22;5664;48.606;13.456;2023-12-29T09:30:32;16.90;89.20
11214;DHT22;5664;48.606;13.456;2023-12-29T09:32:57;16.90;89.10
11214;DHT22;5664;48.606;13.456;2023-12-29T09:35:23;17.00;89.10
11214;DHT22;5664;48.606;13.456;2023-12-29T09:37:49;17.10;89.20
11214;DHT22;5664;48.606;13.456;2023-12-29T09:40:15;17.20;89.20
11214;DHT22;5664;48.606;13.456;2023-12-29T09:42:42;17.30;89.10
11214;DHT22;5664;48.606;13.456;2023-12-29T09:45:10;17.40;89.00
11214;DHT22;5664;48.606;13.456;2023-12-29T09:47:38;17.50;88.80
11214;DHT22;5664;48.606;13.456;2023-12-29T09:50:04;17.50;88.60
11214;DHT22;5664;48.606;13.456;2023-12-29T09:52:30;17.60;88.50
11214;DHT22;5664;48.606;13.456;2023-12-29T09:54:55;17.70;88.30
11214;DHT22;5664;48.606;13.456;2023-12-29T09:57:21;17.80;88.20
11214;DHT22;5664;48.606;13.456;2023-12-29T09:59:48;17.90;88.00
11214;DHT22;5664;48.606;13.456;2023-12-29T10:02:16;17.90;87.80
11214;DHT22;5664;48.606;13.456;2023-12-29T10:04:42;18.10;87.70
11214;DHT22;5664;48.606;13.456;2023-12-29T10:07:07;18.30;88.50
11214;DHT22;5664;48.606;13.456;2023-12-29T10:09:34;18.50;87.10
11214;DHT22;5664;48.606;13.456;2023-12-29T10:12:02;18.90;86.90
11214;DHT22;5664;48.606;13.456;2023-12-29T10:14:41;19.30;85.50
11214;DHT22;5664;48.606;13.456;2023-12-29T10:20:07;20.50;82.10
11214;DHT22;5664;48.606;13.456;2023-12-29T10:22:40;21.20;79.00
11214;DHT22;5664;48.606;13.456;2023-12-29T10:25:08;21.70;75.90
11214;DHT22;5664;48.606;13.456;2023-12-29T10:27:35;21.80;74.40
11214;DHT22;5664;48.606;13.456;2023-12-29T10:30:00;21.70;74.50
11214;DHT22;5664;48.606;13.456;2023-12-29T10:32:25;21.70;75.50
11214;DHT22;5664;48.606;13.456;2023-12-29T10:37:41;22.10;73.80
11214;DHT22;5664;48.606;13.456;2023-12-29T10:40:07;22.30;72.30
11214;DHT22;5664;48.606;13.456;2023-12-29T10:42:33;22.40;71.80
11214;DHT22;5664;48.606;13.456;2023-12-29T10:45:08;22.40;71.80
11214;DHT22;5664;48.606;13.456;2023-12-29T10:47:34;22.40;72.40
11214;DHT22;5664;48.606;13.456;2023-12-29T10:50:04;22.40;72.90
11214;DHT22;5664;48.606;13.456;2023-12-29T10:52:31;22.60;72.70
11214;DHT22;5664;48.606;13.456;2023-12-29T10:55:09;22.80;70.70
11214;DHT22;5664;48.606;13.456;2023-12-29T10:57:38;22.70;70.80
11214;DHT22;5664;48.606;13.456;2023-12-29T11:00:05;22.50;71.50
11214;DHT22;5664;48.606;13.456;2023-12-29T11:02:33;22.40;71.60
11214;DHT22;5664;48.606;13.456;2023-12-29T11:05:05;22.20;71.90
11214;DHT22;5664;48.606;13.456;2023-12-29T11:07:32;22.10;72.50
11214;DHT22;5664;48.606;13.456;2023-12-29T11:09:59;21.80;73.20
11214;DHT22;5664;48.606;13.456;2023-12-29T11:12:25;21.60;73.80
11214;DHT22;5664;48.606;13.456;2023-12-29T11:14:51;21.40;74.50
11214;DHT22;5664;48.606;13.456;2023-12-29T11:17:17;21.30;75.20
11214;DHT22;5664;48.606;13.456;2023-12-29T11:19:43;21.10;75.70
11214;DHT22;5664;48.606;13.456;2023-12-29T11:22:09;21.00;76.20
11214;DHT22;5664;48.606;13.456;2023-12-29T11:24:35;20.90;76.50
11214;DHT22;5664;48.606;13.456;2023-12-29T11:27:00;20.80;76.90
11214;DHT22;5664;48.606;13.456;2023-12-29T11:29:27;20.70;77.20
11214;DHT22;5664;48.606;13.456;2023-12-29T11:31:53;20.70;77.40
11214;DHT22;5664;48.606;13.456;2023-12-29T11:34:26;20.60;77.50
11214;DHT22;5664;48.606;13.456;2023-12-29T11:36:55;20.60;77.80
11214;DHT22;5664;48.606;13.456;2023-12-29T11:39:43;20.50;78.00
11214;DHT22;5664;48.606;13.456;2023-12-29T11:42:26;20.40;78.90
11214;DHT22;5664;48.606;13.456;2023-12-29T11:44:55;20.40;78.40
11214;DHT22;5664;48.606;13.456;2023-12-29T11:50:02;20.30;78.70
11214;DHT22;5664;48.606;13.456;2023-12-29T11:52:38;20.30;78.90
11214;DHT22;5664;48.606;13.456;2023-12-29T11:55:07;20.20;79.10
11214;DHT22;5664;48.606;13.456;2023-12-29T11:57:32;20.20;79.30
11214;DHT22;5664;48.606;13.456;2023-12-29T11:59:58;20.20;79.40
11214;DHT22;5664;48.606;13.456;2023-12-29T12:02:27;20.20;79.40
11214;DHT22;5664;48.606;13.456;2023-12-29T12:04:52;20.10;79.50
11214;DHT22;5664;48.606;13.456;2023-12-29T12:09:47;20.10;79.70
11214;DHT22;5664;48.606;13.456;2023-12-29T12:12:14;20.10;79.70
11214;DHT22;5664;48.606;13.456;2023-12-29T12:15:00;20.10;79.80
11214;DHT22;5664;48.606;13.456;2023-12-29T12:17:28;20.10;79.80
11214;DHT22;5664;48.606;13.456;2023-12-29T12:19:57;20.10;79.80
11214;DHT22;5664;48.606;13.456;2023-12-29T12:22:24;20.10;79.80
11214;DHT22;5664;48.606;13.456;2023-12-29T12:24:54;20.10;79.90
11214;DHT22;5664;48.606;13.456;2023-12-29T12:27:20;20.10;80.70
11214;DHT22;5664;48.606;13.456;2023-12-29T12:29:52;20.00;79.80
11214;DHT22;5664;48.606;13.456;2023-12-29T12:32:20;20.10;80.00
11214;DHT22;5664;48.606;13.456;2023-12-29T12:34:47;20.10;80.00
11214;DHT22;5664;48.606;13.456;2023-12-29T12:37:12;20.10;79.80
11214;DHT22;5664;48.606;13.456;2023-12-29T12:39:43;20.10;79.70
11214;DHT22;5664;48.606;13.456;2023-12-29T12:42:09;20.10;79.70
11214;DHT22;5664;48.606;13.456;2023-12-29T12:44:34;20.20;80.50
11214;DHT22;5664;48.606;13.456;2023-12-29T12:47:06;20.20;79.50
11214;DHT22;5664;48.606;13.456;2023-12-29T12:49:32;20.20;79.40
11214;DHT22;5664;48.606;13.456;2023-12-29T12:51:58;20.20;79.40
11214;DHT22;5664;48.606;13.456;2023-12-29T12:54:23;20.20;79.40
11214;DHT22;5664;48.606;13.456;2023-12-29T12:56:49;20.20;79.50
11214;DHT22;5664;48.606;13.456;2023-12-29T12:59:15;20.70;79.90
11214;DHT22;5664;48.606;13.456;2023-12-29T13:01:41;20.20;79.70
11214;DHT22;5664;48.606;13.456;2023-12-29T13:04:07;20.20;79.70
11214;DHT22;5664;48.606;13.456;2023-12-29T13:06:33;20.20;79.70
11214;DHT22;5664;48.606;13.456;2023-12-29T13:09:03;20.20;79.70
11214;DHT22;5664;48.606;13.456;2023-12-29T13:11:30;20.20;79.80
11214;DHT22;5664;48.606;13.456;2023-12-29T13:13:55;20.20;79.80
11214;DHT22;5664;48.606;13.456;2023-12-29T13:16:29;20.20;79.90
11214;DHT22;5664;48.606;13.456;2023-12-29T13:18:55;20.20;79.90
11214;DHT22;5664;48.606;13.456;2023-12-29T13:21:21;20.10;80.00
11214;DHT22;5664;48.606;13.456;2023-12-29T13:23:47;20.10;80.10
11214;DHT22;5664;48.606;13.456;2023-12-29T13:26:12;20.10;77.20
11214;DHT22;5664;48.606;13.456;2023-12-29T13:28:38;19.90;73.20
11214;DHT22;5664;48.606;13.456;2023-12-29T13:31:04;19.90;76.70
11214;DHT22;5664;48.606;13.456;2023-12-29T13:33:34;19.90;78.40
11214;DHT22;5664;48.606;13.456;2023-12-29T13:36:25;19.90;78.90
11214;DHT22;5664;48.606;13.456;2023-12-29T13:38:57;19.90;79.10
11214;DHT22;5664;48.606;13.456;2023-12-29T13:41:24;19.90;79.30
11214;DHT22;5664;48.606;13.456;2023-12-29T13:43:50;19.90;80.00
11214;DHT22;5664;48.606;13.456;2023-12-29T13:46:17;19.90;79.40
11214;DHT22;5664;48.606;13.456;2023-12-29T13:48:43;19.90;79.50
11214;DHT22;5664;48.606;13.456;2023-12-29T13:51:09;19.90;79.60
11214;DHT22;5664;48.606;13.456;2023-12-29T13:53:34;19.90;79.70
11214;DHT22;5664;48.606;13.456;2023-12-29T13:56:05;19.90;79.80
11214;DHT22;5664;48.606;13.456;2023-12-29T13:58:31;19.90;80.00
11214;DHT22;5664;48.606;13.456;2023-12-29T14:00:58;19.90;80.10
11214;DHT22;5664;48.606;13.456;2023-12-29T14:03:27;19.90;80.20
11214;DHT22;5664;48.606;13.456;2023-12-29T14:06:04;20.00;80.90
11214;DHT22;5664;48.606;13.456;2023-12-29T14:08:33;20.00;80.50
11214;DHT22;5664;48.606;13.456;2023-12-29T14:11:06;20.00;80.60
11214;DHT22;5664;48.606;13.456;2023-12-29T14:13:31;20.00;80.70
11214;DHT22;5664;48.606;13.456;2023-12-29T14:15:57;20.00;80.80
11214;DHT22;5664;48.606;13.456;2023-12-29T14:20:48;20.00;80.90
11214;DHT22;5664;48.606;13.456;2023-12-29T14:23:17;20.00;80.90
11214;DHT22;5664;48.606;13.456;2023-12-29T14:25:43;20.00;80.90
11214;DHT22;5664;48.606;13.456;2023-12-29T14:28:18;20.00;81.00
11214;DHT22;5664;48.606;13.456;2023-12-29T14:30:44;20.00;81.00
11214;DHT22;5664;48.606;13.456;2023-12-29T14:33:10;20.00;81.00
11214;DHT22;5664;48.606;13.456;2023-12-29T14:35:35;20.00;81.10
11214;DHT22;5664;48.606;13.456;2023-12-29T14:38:01;20.00;81.10
11214;DHT22;5664;48.606;13.456;2023-12-29T14:40:27;20.00;81.10
11214;DHT22;5664;48.606;13.456;2023-12-29T14:42:52;20.00;81.20
11214;DHT22;5664;48.606;13.456;2023-12-29T14:45:18;20.30;81.40
11214;DHT22;5664;48.606;13.456;2023-12-29T14:47:43;20.00;81.30
11214;DHT22;5664;48.606;13.456;2023-12-29T14:50:11;20.00;81.50
11214;DHT22;5664;48.606;13.456;2023-12-29T14:52:36;20.00;81.50
11214;DHT22;5664;48.606;13.456;2023-12-29T14:55:02;20.00;81.60
11214;DHT22;5664;48.606;13.456;2023-12-29T14:57:27;20.00;81.70
11214;DHT22;5664;48.606;13.456;2023-12-29T14:59:53;20.00;81.80
11214;DHT22;5664;48.606;13.456;2023-12-29T15:02:18;20.00;81.80
11214;DHT22;5664;48.606;13.456;2023-12-29T15:04:44;19.90;81.90
11214;DHT22;5664;48.606;13.456;2023-12-29T15:07:09;19.90;81.90
11214;DHT22;5664;48.606;13.456;2023-12-29T15:09:35;19.90;82.00
11214;DHT22;5664;48.606;13.456;2023-12-29T15:12:01;19.90;82.20
11214;DHT22;5664;48.606;13.456;2023-12-29T15:14:27;19.90;82.30
11214;DHT22;5664;48.606;13.456;2023-12-29T15:16:53;19.90;82.30
11214;DHT22;5664;48.606;13.456;2023-12-29T15:19:18;19.80;82.40
11214;DHT22;5664;48.606;13.456;2023-12-29T15:21:44;19.90;82.40
11214;DHT22;5664;48.606;13.456;2023-12-29T15:24:09;19.90;82.40
11214;DHT22;5664;48.606;13.456;2023-12-29T15:26:35;19.80;82.50
11214;DHT22;5664;48.606;13.456;2023-12-29T15:29:01;19.80;82.60
11214;DHT22;5664;48.606;13.456;2023-12-29T15:31:28;19.80;82.70
11214;DHT22;5664;48.606;13.456;2023-12-29T15:33:53;19.80;82.80
11214;DHT22;5664;48.606;13.456;2023-12-29T15:36:19;19.80;82.90
11214;DHT22;5664;48.606;13.456;2023-12-29T15:38:48;19.80;83.10
11214;DHT22;5664;48.606;13.456;2023-12-29T15:41:14;19.80;83.20